createdAt,value
2023-06-07T00:00:19.107Z,20.1271
2023-06-07T00:01:20.943Z,20.1450
2023-06-07T00:02:36.869Z,20.1536
2023-06-07T00:03:25.670Z,20.1464
2023-06-07T00:04:26.464Z,20.1179
2023-06-07T00:05:28.321Z,20.1207
2023-06-07T00:06:30.136Z,20.1682
2023-06-07T00:07:31.976Z,20.1721
2023-06-07T00:08:33.840Z,20.1889
2023-06-07T00:09:35.654Z,20.1869
2023-06-07T00:10:37.492Z,20.1624
2023-06-07T00:11:39.316Z,20.1343
2023-06-07T00:12:41.150Z,20.1394
2023-06-07T00:13:43.020Z,20.1109
2023-06-07T00:14:44.849Z,20.1281
2023-06-07T00:15:46.718Z,20.1565
2023-06-07T00:16:48.616Z,20.1760
2023-06-07T00:17:50.487Z,20.1674
2023-06-07T00:18:52.209Z,20.1661
2023-06-07T00:19:54.055Z,20.1752
2023-06-07T00:20:55.933Z,20.1522
2023-06-07T00:21:57.726Z,20.1984
2023-06-07T00:22:59.566Z,20.2097
2023-06-07T00:24:01.412Z,20.2138
2023-06-07T00:25:03.278Z,20.1470
2023-06-07T00:26:05.091Z,20.1639
2023-06-07T00:27:06.939Z,20.1719
2023-06-07T00:28:08.779Z,20.1639
2023-06-07T00:29:10.608Z,20.1815
2023-06-07T00:30:12.458Z,20.1760
2023-06-07T00:31:14.330Z,20.1606
2023-06-07T00:32:16.152Z,20.1417
2023-06-07T00:33:17.970Z,20.1174
2023-06-07T00:34:19.801Z,20.1160
2023-06-07T00:35:21.654Z,20.1228
2023-06-07T00:36:23.545Z,20.1037
2023-06-07T00:37:25.371Z,20.1265
2023-06-07T00:38:27.163Z,20.1179
2023-06-07T00:39:29.002Z,20.1191
2023-06-07T00:40:30.855Z,20.1300
2023-06-07T00:41:32.704Z,20.1443
2023-06-07T00:42:34.535Z,20.1472
2023-06-07T00:43:36.358Z,20.1534
2023-06-07T00:44:38.225Z,20.1743
2023-06-07T00:45:40.031Z,20.1869
2023-06-07T00:46:41.929Z,20.1916
2023-06-07T00:47:43.804Z,20.1953
2023-06-07T00:48:45.671Z,20.1606
2023-06-07T00:49:47.407Z,20.1612
2023-06-07T00:50:49.254Z,20.1637
2023-06-07T00:51:51.174Z,20.1150
2023-06-07T00:52:52.904Z,20.0948
2023-06-07T00:53:54.735Z,20.1057
2023-06-07T00:54:56.600Z,20.1187
2023-06-07T00:55:58.432Z,20.1602
2023-06-07T00:57:00.290Z,20.1704
2023-06-07T00:58:02.097Z,20.1694
2023-06-07T00:59:03.935Z,20.1836
2023-06-07T01:00:06.033Z,20.1530
2023-06-07T01:01:07.639Z,20.1183
2023-06-07T01:02:09.555Z,20.1322
2023-06-07T01:03:11.378Z,20.1236
2023-06-07T01:04:13.135Z,20.1191
2023-06-07T01:05:14.979Z,20.1281
2023-06-07T01:06:16.806Z,20.1068
2023-06-07T01:07:18.711Z,20.0889
2023-06-07T01:08:20.476Z,20.1020
2023-06-07T01:09:22.383Z,20.0679
2023-06-07T01:10:24.173Z,20.0429
2023-06-07T01:11:26.017Z,20.0864
2023-06-07T01:12:27.848Z,20.1125
2023-06-07T01:13:29.682Z,20.1443
2023-06-07T01:14:31.532Z,20.1316
2023-06-07T01:15:33.372Z,20.1294
2023-06-07T01:16:35.252Z,20.1359
2023-06-07T01:17:37.060Z,20.1624
2023-06-07T01:18:38.871Z,20.1540
2023-06-07T01:19:40.722Z,20.1655
2023-06-07T01:20:42.570Z,20.1614
2023-06-07T01:21:44.411Z,20.1526
2023-06-07T01:22:46.271Z,20.1585
2023-06-07T01:23:48.098Z,20.1248
2023-06-07T01:24:49.910Z,20.1185
2023-06-07T01:25:51.748Z,20.1409
2023-06-07T01:26:53.613Z,20.1624
2023-06-07T01:27:55.414Z,20.1778
2023-06-07T01:28:57.242Z,20.1499
2023-06-07T01:29:59.074Z,20.1224
2023-06-07T01:31:00.925Z,20.0971
2023-06-07T01:32:02.779Z,20.1246
2023-06-07T01:33:04.752Z,20.1263
2023-06-07T01:34:06.419Z,20.1435
2023-06-07T01:35:08.256Z,20.1394
2023-06-07T01:36:10.118Z,20.1031
2023-06-07T01:37:11.951Z,20.1296
2023-06-07T01:38:13.855Z,20.1267
2023-06-07T01:39:15.649Z,20.1446
2023-06-07T01:40:17.473Z,20.1370
2023-06-07T01:41:19.300Z,20.1423
2023-06-07T01:42:21.135Z,20.1413
2023-06-07T01:43:22.981Z,20.0369
2023-06-07T01:44:24.820Z,20.0075
2023-06-07T01:45:26.644Z,20.0324
2023-06-07T01:46:28.550Z,20.0686
2023-06-07T01:47:30.302Z,20.0907
2023-06-07T01:48:32.170Z,20.1107
2023-06-07T01:49:33.990Z,20.1257
2023-06-07T01:50:35.826Z,20.1098
2023-06-07T01:51:37.681Z,20.0961
2023-06-07T01:52:39.498Z,20.0718
2023-06-07T01:53:41.364Z,20.0394
2023-06-07T01:54:43.161Z,20.0277
2023-06-07T01:55:45.019Z,20.0182
2023-06-07T01:56:46.875Z,19.9975
2023-06-07T01:57:48.694Z,19.9743
2023-06-07T01:58:50.530Z,19.9841
2023-06-07T01:59:52.357Z,20.0256
2023-06-07T02:00:54.190Z,20.0725
2023-06-07T02:01:56.124Z,20.0803
2023-06-07T02:02:57.900Z,20.0817
2023-06-07T02:03:59.762Z,20.0934
2023-06-07T02:05:01.534Z,20.1020
2023-06-07T02:06:10.956Z,20.1068
2023-06-07T02:07:05.206Z,20.0738
2023-06-07T02:08:07.060Z,20.0704
2023-06-07T02:09:08.961Z,20.0784
2023-06-07T02:10:11.109Z,20.0875
2023-06-07T02:11:12.580Z,20.0720
2023-06-07T02:12:14.405Z,20.0308
2023-06-07T02:13:16.249Z,19.9958
2023-06-07T02:14:18.144Z,20.0020
2023-06-07T02:15:19.940Z,20.0523
2023-06-07T02:16:21.777Z,20.0620
2023-06-07T02:17:23.655Z,20.0827
2023-06-07T02:18:25.494Z,20.0932
2023-06-07T02:19:27.304Z,20.0579
2023-06-07T02:20:29.119Z,20.0262
2023-06-07T02:21:30.982Z,19.9997
2023-06-07T02:22:32.803Z,19.9989
2023-06-07T02:23:34.661Z,20.0030
2023-06-07T02:24:36.562Z,20.0215
2023-06-07T02:25:38.330Z,20.0158
2023-06-07T02:26:40.148Z,20.0188
2023-06-07T02:27:41.978Z,20.0248
2023-06-07T02:28:43.819Z,20.0269
2023-06-07T02:29:45.710Z,20.0258
2023-06-07T02:30:47.512Z,19.9774
2023-06-07T02:31:49.438Z,19.9677
2023-06-07T02:32:51.340Z,19.9683
2023-06-07T02:33:53.013Z,19.9141
2023-06-07T02:34:54.908Z,19.8502
2023-06-07T02:35:56.704Z,19.9096
2023-06-07T02:36:58.544Z,19.9622
2023-06-07T02:38:00.366Z,19.9831
2023-06-07T02:39:02.240Z,19.9833
2023-06-07T02:40:04.286Z,20.0193
2023-06-07T02:41:05.883Z,20.0211
2023-06-07T02:42:07.724Z,19.9979
2023-06-07T02:43:09.577Z,20.0197
2023-06-07T02:44:11.497Z,20.0361
2023-06-07T02:45:13.272Z,20.0482
2023-06-07T02:46:15.097Z,20.0343
2023-06-07T02:47:16.925Z,20.0248
2023-06-07T02:48:18.753Z,20.0453
2023-06-07T02:49:20.606Z,20.0328
2023-06-07T02:50:22.461Z,20.0227
2023-06-07T02:51:24.288Z,19.9595
2023-06-07T02:52:26.110Z,19.9463
2023-06-07T02:53:27.941Z,19.9022
2023-06-07T02:54:29.825Z,19.8974
2023-06-07T02:55:31.642Z,19.9094
2023-06-07T02:56:33.520Z,19.9153
2023-06-07T02:57:35.302Z,19.9465
2023-06-07T02:58:37.132Z,19.9394
2023-06-07T02:59:38.973Z,19.9506
2023-06-07T03:00:40.861Z,19.8981
2023-06-07T03:01:42.662Z,19.9124
2023-06-07T03:02:44.524Z,19.9418
2023-06-07T03:03:46.387Z,19.9601
2023-06-07T03:04:48.155Z,19.9377
2023-06-07T03:05:50.042Z,19.9211
2023-06-07T03:06:51.845Z,19.9050
2023-06-07T03:07:53.705Z,19.8835
2023-06-07T03:08:55.542Z,19.9108
2023-06-07T03:09:57.383Z,19.9260
2023-06-07T03:10:59.209Z,19.9202
2023-06-07T03:12:01.106Z,19.9090
2023-06-07T03:13:02.967Z,19.8547
2023-06-07T03:14:04.782Z,19.8933
2023-06-07T03:15:06.643Z,19.8773
2023-06-07T03:16:08.489Z,19.8703
2023-06-07T03:17:10.573Z,19.8340
2023-06-07T03:18:12.191Z,19.8219
2023-06-07T03:19:13.981Z,19.8625
2023-06-07T03:20:15.811Z,19.8360
2023-06-07T03:21:17.705Z,19.8508
2023-06-07T03:22:19.495Z,19.8498
2023-06-07T03:23:21.314Z,19.8065
2023-06-07T03:24:23.172Z,19.8447
2023-06-07T03:25:25.065Z,19.8543
2023-06-07T03:26:26.919Z,19.8685
2023-06-07T03:27:28.696Z,19.8656
2023-06-07T03:28:30.514Z,19.8825
2023-06-07T03:29:32.366Z,19.8658
2023-06-07T03:30:34.247Z,19.8714
2023-06-07T03:31:36.080Z,19.8802
2023-06-07T03:32:37.907Z,19.9309
2023-06-07T03:33:39.727Z,19.8862
2023-06-07T03:34:41.564Z,19.8664
2023-06-07T03:35:43.391Z,19.9151
2023-06-07T03:36:45.268Z,19.9016
2023-06-07T03:37:47.066Z,19.9040
2023-06-07T03:38:48.902Z,19.9250
2023-06-07T03:39:50.757Z,19.9307
2023-06-07T03:40:52.600Z,19.9626
2023-06-07T03:41:54.596Z,19.9558
2023-06-07T03:42:56.279Z,19.9073
2023-06-07T03:43:58.116Z,19.8541
2023-06-07T03:44:59.938Z,19.8354
2023-06-07T03:46:01.815Z,19.8375
2023-06-07T03:47:03.636Z,19.7781
2023-06-07T03:48:05.513Z,19.8406
2023-06-07T03:49:07.334Z,19.8876
2023-06-07T03:50:09.180Z,19.8841
2023-06-07T03:51:10.986Z,19.8701
2023-06-07T03:52:12.847Z,19.8516
2023-06-07T03:53:14.650Z,19.8342
2023-06-07T03:54:16.485Z,19.8636
2023-06-07T03:55:18.339Z,19.8473
2023-06-07T03:56:20.188Z,19.8237
2023-06-07T03:57:22.050Z,19.8438
2023-06-07T03:58:23.846Z,19.8853
2023-06-07T03:59:25.703Z,19.8880
2023-06-07T04:00:27.558Z,19.8944
2023-06-07T04:01:29.379Z,19.8438
2023-06-07T04:02:31.328Z,19.8670
2023-06-07T04:03:33.123Z,19.8974
2023-06-07T04:04:35.015Z,19.8794
2023-06-07T04:05:36.732Z,19.8675
2023-06-07T04:06:38.584Z,19.8773
2023-06-07T04:07:40.429Z,19.8726
2023-06-07T04:08:42.242Z,19.8465
2023-06-07T04:09:44.085Z,19.8182
2023-06-07T04:10:45.935Z,19.8274
2023-06-07T04:11:47.780Z,19.8151
2023-06-07T04:12:49.773Z,19.7989
2023-06-07T04:13:51.461Z,19.7662
2023-06-07T04:14:53.280Z,19.7300
2023-06-07T04:15:55.129Z,19.7284
2023-06-07T04:16:57.123Z,19.7744
2023-06-07T04:17:58.920Z,19.7609
2023-06-07T04:19:02.270Z,19.7756
2023-06-07T04:20:02.472Z,19.7722
2023-06-07T04:21:04.354Z,19.8212
2023-06-07T04:22:06.176Z,19.8268
2023-06-07T04:23:08.021Z,19.8414
2023-06-07T04:24:09.936Z,19.8065
2023-06-07T04:25:11.699Z,19.8286
2023-06-07T04:26:13.534Z,19.8141
2023-06-07T04:27:15.377Z,19.7586
2023-06-07T04:28:17.262Z,19.7393
2023-06-07T04:29:19.053Z,19.7266
2023-06-07T04:30:20.882Z,19.7561
2023-06-07T04:31:22.736Z,19.8011
2023-06-07T04:32:24.624Z,19.8334
2023-06-07T04:33:26.400Z,19.8416
2023-06-07T04:34:28.233Z,19.8311
2023-06-07T04:35:30.072Z,19.7516
2023-06-07T04:36:31.928Z,19.7311
2023-06-07T04:37:33.757Z,19.7148
2023-06-07T04:38:46.300Z,19.6672
2023-06-07T04:39:39.182Z,19.6727
2023-06-07T04:40:39.741Z,19.7387
2023-06-07T04:41:41.323Z,19.7773
2023-06-07T04:42:42.951Z,19.7491
2023-06-07T04:43:44.837Z,19.7506
2023-06-07T04:44:46.614Z,19.7695
2023-06-07T04:45:48.452Z,19.7978
2023-06-07T04:46:50.290Z,19.7787
2023-06-07T04:47:52.188Z,19.7900
2023-06-07T04:48:54.002Z,19.8284
2023-06-07T04:49:55.800Z,19.8373
2023-06-07T04:50:57.635Z,19.8594
2023-06-07T04:51:59.472Z,19.8738
2023-06-07T04:53:01.320Z,19.8765
2023-06-07T04:54:03.220Z,19.8543
2023-06-07T04:55:04.975Z,19.8190
2023-06-07T04:56:06.827Z,19.8272
2023-06-07T04:57:08.663Z,19.7931
2023-06-07T04:58:10.514Z,19.7728
2023-06-07T04:59:12.348Z,19.8017
2023-06-07T05:00:14.189Z,19.8210
2023-06-07T05:01:16.008Z,19.8110
2023-06-07T05:02:17.835Z,19.7822
2023-06-07T05:03:19.683Z,19.7726
2023-06-07T05:04:21.625Z,19.7966
2023-06-07T05:05:23.440Z,19.8032
2023-06-07T05:06:25.253Z,19.8011
2023-06-07T05:07:27.023Z,19.8042
2023-06-07T05:08:28.863Z,19.8188
2023-06-07T05:09:31.064Z,19.8212
2023-06-07T05:10:32.555Z,19.8506
2023-06-07T05:11:34.405Z,19.8492
2023-06-07T05:12:36.224Z,19.8334
2023-06-07T05:13:38.058Z,19.7633
2023-06-07T05:14:39.905Z,19.7908
2023-06-07T05:15:41.765Z,19.8118
2023-06-07T05:16:44.630Z,19.7775
2023-06-07T05:17:45.447Z,19.7935
2023-06-07T05:18:47.260Z,19.7923
2023-06-07T05:19:49.093Z,19.7869
2023-06-07T05:20:50.922Z,19.8149
2023-06-07T05:21:52.763Z,19.8282
2023-06-07T05:22:54.628Z,19.8132
2023-06-07T05:23:56.451Z,19.7997
2023-06-07T05:24:58.275Z,19.8303
2023-06-07T05:26:00.093Z,19.7991
2023-06-07T05:27:01.944Z,19.7204
2023-06-07T05:28:13.187Z,19.7128
2023-06-07T05:29:08.304Z,19.7319
2023-06-07T05:30:08.896Z,19.7101
2023-06-07T05:31:12.048Z,19.7054
2023-06-07T05:32:11.964Z,19.7062
2023-06-07T05:33:13.539Z,19.6957
2023-06-07T05:34:15.110Z,19.6988
2023-06-07T05:35:16.690Z,19.7239
2023-06-07T05:36:18.451Z,19.7650
2023-06-07T05:37:20.287Z,19.7220
2023-06-07T05:38:22.115Z,19.6902
2023-06-07T05:39:23.946Z,19.7278
2023-06-07T05:40:25.813Z,19.7280
2023-06-07T05:41:27.628Z,19.7510
2023-06-07T05:42:29.453Z,19.7436
2023-06-07T05:43:31.295Z,19.7442
2023-06-07T05:44:33.132Z,19.7508
2023-06-07T05:45:35.013Z,19.7734
2023-06-07T05:46:36.830Z,19.7841
2023-06-07T05:47:38.702Z,19.7800
2023-06-07T05:48:40.476Z,19.7917
2023-06-07T05:49:42.334Z,19.8034
2023-06-07T05:50:44.158Z,19.8058
2023-06-07T05:51:45.991Z,19.7896
2023-06-07T05:52:47.832Z,19.8093
2023-06-07T05:53:49.664Z,19.8108
2023-06-07T05:54:51.494Z,19.7966
2023-06-07T05:55:53.349Z,19.7908
2023-06-07T05:56:55.161Z,19.7572
2023-06-07T05:57:57.040Z,19.7664
2023-06-07T05:58:58.857Z,19.7798
2023-06-07T06:00:00.677Z,19.7656
2023-06-07T06:01:02.556Z,19.8044
2023-06-07T06:02:04.380Z,19.8184
2023-06-07T06:03:06.226Z,19.8219
2023-06-07T06:04:08.048Z,19.8295
2023-06-07T06:05:10.048Z,19.7974
2023-06-07T06:06:11.720Z,19.8052
2023-06-07T06:07:13.552Z,19.7980
2023-06-07T06:08:15.407Z,19.7865
2023-06-07T06:09:17.274Z,19.7791
2023-06-07T06:10:19.080Z,19.8062
2023-06-07T06:11:20.935Z,19.8071
2023-06-07T06:12:22.767Z,19.8138
2023-06-07T06:13:24.607Z,19.8071
2023-06-07T06:14:26.510Z,19.8124
2023-06-07T06:15:28.273Z,19.7937
2023-06-07T06:16:30.180Z,19.7826
2023-06-07T06:17:31.993Z,19.7898
2023-06-07T06:18:33.842Z,19.7880
2023-06-07T06:19:35.640Z,19.7387
2023-06-07T06:20:37.477Z,19.6961
2023-06-07T06:21:39.315Z,19.7074
2023-06-07T06:22:41.159Z,19.7752
2023-06-07T06:23:43.025Z,19.7588
2023-06-07T06:24:44.826Z,19.7586
2023-06-07T06:25:46.652Z,19.8056
2023-06-07T06:26:48.499Z,19.8149
2023-06-07T06:27:50.399Z,19.7736
2023-06-07T06:28:52.182Z,19.7021
2023-06-07T06:29:54.009Z,19.6586
2023-06-07T06:30:55.861Z,19.6592
2023-06-07T06:31:57.685Z,19.7003
2023-06-07T06:32:59.561Z,19.7376
2023-06-07T06:34:01.343Z,19.7750
2023-06-07T06:35:03.174Z,19.7767
2023-06-07T06:36:05.004Z,19.7613
2023-06-07T06:37:06.928Z,19.7479
2023-06-07T06:38:08.840Z,19.7167
2023-06-07T06:39:10.504Z,19.7042
2023-06-07T06:40:12.341Z,19.7561
2023-06-07T06:41:14.190Z,19.7869
2023-06-07T06:42:16.035Z,19.7736
2023-06-07T06:43:17.868Z,19.7580
2023-06-07T06:44:19.687Z,19.7672
2023-06-07T06:45:21.528Z,19.8011
2023-06-07T06:46:23.459Z,19.8163
2023-06-07T06:47:25.266Z,19.8007
2023-06-07T06:48:27.019Z,19.8235
2023-06-07T06:49:28.866Z,19.8525
2023-06-07T06:50:33.347Z,19.8712
2023-06-07T06:51:32.541Z,19.9032
2023-06-07T06:52:34.386Z,19.9071
2023-06-07T06:53:36.233Z,19.8884
2023-06-07T06:54:38.065Z,19.9116
2023-06-07T06:55:39.878Z,19.9186
2023-06-07T06:56:41.734Z,19.8907
2023-06-07T06:57:43.562Z,19.8716
2023-06-07T06:58:45.404Z,19.8482
2023-06-07T06:59:50.067Z,19.8917
2023-06-07T07:00:49.215Z,19.9057
2023-06-07T07:01:50.932Z,19.8806
2023-06-07T07:02:52.976Z,19.8792
2023-06-07T07:03:54.612Z,19.8317
2023-06-07T07:04:56.402Z,19.8149
2023-06-07T07:05:58.253Z,19.8147
2023-06-07T07:07:00.080Z,19.8217
2023-06-07T07:08:01.931Z,19.8021
2023-06-07T07:09:03.743Z,19.8488
2023-06-07T07:10:05.741Z,19.8537
2023-06-07T07:11:07.418Z,19.8570
2023-06-07T07:12:09.259Z,19.8555
2023-06-07T07:13:11.118Z,19.9009
2023-06-07T07:14:12.913Z,19.9038
2023-06-07T07:15:14.786Z,19.8933
2023-06-07T07:16:16.762Z,19.8816
2023-06-07T07:17:18.500Z,19.8831
2023-06-07T07:18:20.346Z,19.8553
2023-06-07T07:19:22.174Z,19.9055
2023-06-07T07:20:24.008Z,19.9034
2023-06-07T07:21:25.863Z,19.9176
2023-06-07T07:22:29.109Z,19.9332
2023-06-07T07:23:29.568Z,19.9254
2023-06-07T07:24:31.361Z,19.8921
2023-06-07T07:25:33.202Z,19.9024
2023-06-07T07:26:35.051Z,19.8931
2023-06-07T07:27:36.907Z,19.9073
2023-06-07T07:28:38.760Z,19.9414
2023-06-07T07:29:40.553Z,19.9527
2023-06-07T07:30:42.393Z,19.9486
2023-06-07T07:31:44.225Z,19.9422
2023-06-07T07:32:46.145Z,19.9519
2023-06-07T07:33:48.182Z,19.9030
2023-06-07T07:34:49.810Z,19.9011
2023-06-07T07:35:51.584Z,19.8956
2023-06-07T07:36:53.409Z,19.9096
2023-06-07T07:37:55.258Z,19.9116
2023-06-07T07:38:57.118Z,19.9619
2023-06-07T07:39:58.941Z,20.0188
2023-06-07T07:41:00.772Z,20.0273
2023-06-07T07:42:03.579Z,19.9700
2023-06-07T07:43:04.474Z,19.9387
2023-06-07T07:44:06.320Z,19.9186
2023-06-07T07:45:08.140Z,19.9155
2023-06-07T07:46:10.014Z,19.9250
2023-06-07T07:47:11.812Z,19.9845
2023-06-07T07:48:13.696Z,19.9808
2023-06-07T07:49:15.567Z,20.0199
2023-06-07T07:50:17.331Z,19.9969
2023-06-07T07:51:19.149Z,20.0030
2023-06-07T07:52:22.649Z,20.0211
2023-06-07T07:53:22.842Z,20.0308
2023-06-07T07:54:24.697Z,20.0560
2023-06-07T07:55:26.518Z,20.0577
2023-06-07T07:56:28.357Z,20.0743
2023-06-07T07:57:30.181Z,20.0899
2023-06-07T07:58:32.040Z,20.0318
2023-06-07T07:59:34.112Z,20.0386
2023-06-07T08:00:35.715Z,20.0566
2023-06-07T08:01:37.572Z,20.0324
2023-06-07T08:02:39.506Z,19.9685
2023-06-07T08:03:41.347Z,19.9843
2023-06-07T08:04:43.227Z,20.0232
2023-06-07T08:05:44.915Z,20.0556
2023-06-07T08:06:46.751Z,20.0583
2023-06-07T08:07:48.585Z,20.0556
2023-06-07T08:08:50.407Z,20.0464
2023-06-07T08:09:52.266Z,20.0254
2023-06-07T08:10:54.105Z,20.0147
2023-06-07T08:11:55.929Z,20.0433
2023-06-07T08:12:57.763Z,20.0548
2023-06-07T08:13:59.604Z,20.0835
2023-06-07T08:15:01.459Z,20.0762
2023-06-07T08:16:03.320Z,20.0831
2023-06-07T08:17:05.119Z,20.1100
2023-06-07T08:18:06.956Z,20.0979
2023-06-07T08:19:08.827Z,20.1082
2023-06-07T08:20:10.647Z,20.0488
2023-06-07T08:21:12.453Z,20.0628
2023-06-07T08:22:14.302Z,20.0794
2023-06-07T08:23:16.142Z,20.1026
2023-06-07T08:24:17.963Z,20.1129
2023-06-07T08:25:19.835Z,20.1000
2023-06-07T08:26:21.635Z,20.1170
2023-06-07T08:27:23.467Z,20.1105
2023-06-07T08:28:25.290Z,20.1129
2023-06-07T08:29:27.125Z,20.1218
2023-06-07T08:30:29.002Z,20.1454
2023-06-07T08:31:30.841Z,20.1550
2023-06-07T08:32:32.749Z,20.1417
2023-06-07T08:33:34.478Z,20.1630
2023-06-07T08:34:36.318Z,20.1947
2023-06-07T08:35:38.153Z,20.2002
2023-06-07T08:36:39.990Z,20.2084
2023-06-07T08:37:41.809Z,20.2125
2023-06-07T08:38:43.661Z,20.1932
2023-06-07T08:39:45.485Z,20.1476
2023-06-07T08:40:47.339Z,20.1645
2023-06-07T08:41:49.157Z,20.1723
2023-06-07T08:42:51.009Z,20.1739
2023-06-07T08:43:52.807Z,20.2025
2023-06-07T08:44:54.653Z,20.2142
2023-06-07T08:45:56.618Z,20.2269
2023-06-07T08:46:58.307Z,20.2025
2023-06-07T08:48:00.240Z,20.2300
2023-06-07T08:49:01.984Z,20.2310
2023-06-07T08:50:04.259Z,20.2415
2023-06-07T08:51:05.671Z,20.2460
2023-06-07T08:53:10.309Z,20.2559
2023-06-07T08:54:11.158Z,20.2542
2023-06-07T08:55:13.197Z,20.2316
2023-06-07T08:56:17.889Z,20.2549
2023-06-07T08:57:16.677Z,20.2756
2023-06-07T08:58:18.492Z,20.2853
2023-06-07T08:59:20.316Z,20.2756
2023-06-07T09:00:22.152Z,20.2768
2023-06-07T09:01:24.100Z,20.2966
2023-06-07T09:02:25.978Z,20.3046
2023-06-07T09:03:27.762Z,20.2927
2023-06-07T09:04:29.541Z,20.2816
2023-06-07T09:05:31.644Z,20.2869
2023-06-07T09:06:33.262Z,20.2968
2023-06-07T09:07:35.040Z,20.2912
2023-06-07T09:08:36.870Z,20.2848
2023-06-07T09:09:38.697Z,20.2894
2023-06-07T09:10:40.541Z,20.3118
2023-06-07T09:11:42.404Z,20.3327
2023-06-07T09:12:44.243Z,20.3424
2023-06-07T09:13:46.077Z,20.3516
2023-06-07T09:14:47.893Z,20.3557
2023-06-07T09:15:49.724Z,20.3637
2023-06-07T09:16:51.772Z,20.3520
2023-06-07T09:17:53.688Z,20.3582
2023-06-07T09:18:55.359Z,20.3582
2023-06-07T09:19:57.088Z,20.3465
2023-06-07T09:20:58.937Z,20.3508
2023-06-07T09:22:00.949Z,20.3571
2023-06-07T09:23:02.612Z,20.3561
2023-06-07T09:24:04.461Z,20.3512
2023-06-07T09:25:06.608Z,20.3516
2023-06-07T09:26:08.120Z,20.3715
2023-06-07T09:27:09.977Z,20.3896
2023-06-07T09:28:11.789Z,20.4048
2023-06-07T09:29:13.623Z,20.4040
2023-06-07T09:30:15.470Z,20.4147
2023-06-07T09:31:17.337Z,20.4161
2023-06-07T09:32:19.187Z,20.4126
2023-06-07T09:33:21.041Z,20.4101
2023-06-07T09:34:22.799Z,20.4149
2023-06-07T09:35:24.649Z,20.4188
2023-06-07T09:36:26.522Z,20.4225
2023-06-07T09:37:28.462Z,20.4227
2023-06-07T09:38:30.155Z,20.4362
2023-06-07T09:39:32.006Z,20.4323
2023-06-07T09:40:33.829Z,20.4309
2023-06-07T09:41:35.654Z,20.4251
2023-06-07T09:42:37.508Z,20.4354
2023-06-07T09:43:39.348Z,20.4101
2023-06-07T09:44:41.173Z,20.4173
2023-06-07T09:45:43.039Z,20.3880
2023-06-07T09:46:44.860Z,20.3693
2023-06-07T09:47:46.694Z,20.3721
2023-06-07T09:48:48.777Z,20.3865
2023-06-07T09:49:50.389Z,20.3997
2023-06-07T09:50:52.203Z,20.4153
2023-06-07T09:51:54.102Z,20.4190
2023-06-07T09:52:55.920Z,20.3974
2023-06-07T09:53:57.752Z,20.3695
2023-06-07T09:54:59.545Z,20.3748
2023-06-07T09:56:01.466Z,20.4003
2023-06-07T09:57:03.221Z,20.3933
2023-06-07T09:58:05.048Z,20.3910
2023-06-07T09:59:06.902Z,20.3991
2023-06-07T10:00:09.128Z,20.3925
2023-06-07T10:01:10.581Z,20.3758
2023-06-07T10:02:12.395Z,20.3672
2023-06-07T10:03:14.368Z,20.3958
2023-06-07T10:04:16.115Z,20.3927
2023-06-07T10:05:17.897Z,20.3602
2023-06-07T10:06:19.733Z,20.3984
2023-06-07T10:07:21.572Z,20.4044
2023-06-07T10:08:23.455Z,20.4305
2023-06-07T10:09:25.268Z,20.4580
2023-06-07T10:10:27.104Z,20.4800
2023-06-07T10:11:28.896Z,20.4818
2023-06-07T10:12:30.758Z,20.4648
2023-06-07T10:13:32.644Z,20.3898
2023-06-07T10:14:34.563Z,20.3956
2023-06-07T10:15:36.254Z,20.4305
2023-06-07T10:16:38.139Z,20.4253
2023-06-07T10:17:39.949Z,20.4640
2023-06-07T10:18:41.783Z,20.4808
2023-06-07T10:19:43.612Z,20.4816
2023-06-07T10:20:45.510Z,20.5059
2023-06-07T10:21:47.330Z,20.5233
2023-06-07T10:22:49.143Z,20.5055
2023-06-07T10:23:51.096Z,20.4890
2023-06-07T10:24:52.867Z,20.4732
2023-06-07T10:25:54.623Z,20.4607
2023-06-07T10:26:56.477Z,20.4730
2023-06-07T10:27:58.302Z,20.4617
2023-06-07T10:29:00.159Z,20.4449
2023-06-07T10:30:02.012Z,20.4479
2023-06-07T10:31:03.816Z,20.4827
2023-06-07T10:32:05.703Z,20.5065
2023-06-07T10:33:07.540Z,20.5163
2023-06-07T10:34:09.390Z,20.5252
2023-06-07T10:35:13.614Z,20.5237
2023-06-07T10:36:13.061Z,20.5574
2023-06-07T10:37:14.908Z,20.5572
2023-06-07T10:38:16.698Z,20.5451
2023-06-07T10:39:18.566Z,20.5416
2023-06-07T10:40:20.406Z,20.5418
2023-06-07T10:41:22.223Z,20.5640
2023-06-07T10:42:24.047Z,20.5776
2023-06-07T10:43:25.879Z,20.5728
2023-06-07T10:44:27.798Z,20.5700
2023-06-07T10:45:29.570Z,20.5950
2023-06-07T10:46:31.425Z,20.5642
2023-06-07T10:47:33.287Z,20.5498
2023-06-07T10:48:35.134Z,20.5829
2023-06-07T10:49:36.973Z,20.5523
2023-06-07T10:50:38.801Z,20.5190
2023-06-07T10:51:40.666Z,20.5459
2023-06-07T10:52:42.461Z,20.5574
2023-06-07T10:53:44.347Z,20.5868
2023-06-07T10:54:46.143Z,20.6162
2023-06-07T10:55:47.986Z,20.6408
2023-06-07T10:56:49.819Z,20.6252
2023-06-07T10:57:51.664Z,20.6250
2023-06-07T10:58:53.488Z,20.6536
2023-06-07T10:59:55.334Z,20.6612
2023-06-07T11:00:57.226Z,20.6780
2023-06-07T11:01:59.076Z,20.6819
2023-06-07T11:03:00.949Z,20.6710
2023-06-07T11:04:02.960Z,20.6531
2023-06-07T11:05:04.893Z,20.6400
2023-06-07T11:06:06.796Z,20.6330
2023-06-07T11:07:08.195Z,20.6365
2023-06-07T11:08:10.039Z,20.6628
2023-06-07T11:09:11.870Z,20.6883
2023-06-07T11:10:13.844Z,20.6805
2023-06-07T11:11:15.575Z,20.6714
2023-06-07T11:12:17.419Z,20.7045
2023-06-07T11:13:19.253Z,20.7191
2023-06-07T11:14:21.087Z,20.6862
2023-06-07T11:15:23.091Z,20.7061
2023-06-07T11:16:24.823Z,20.7181
2023-06-07T11:17:26.660Z,20.7109
2023-06-07T11:18:28.579Z,20.7123
2023-06-07T11:19:30.424Z,20.7296
2023-06-07T11:20:32.205Z,20.6903
2023-06-07T11:21:34.031Z,20.7107
2023-06-07T11:22:35.900Z,20.7090
2023-06-07T11:23:37.771Z,20.7497
2023-06-07T11:24:39.631Z,20.7704
2023-06-07T11:25:41.548Z,20.7682
2023-06-07T11:26:43.238Z,20.7536
2023-06-07T11:27:45.083Z,20.7168
2023-06-07T11:28:46.991Z,20.7115
2023-06-07T11:29:48.741Z,20.7156
2023-06-07T11:30:50.597Z,20.7413
2023-06-07T11:31:52.465Z,20.7437
2023-06-07T11:32:54.301Z,20.7766
2023-06-07T11:33:56.123Z,20.7630
2023-06-07T11:34:58.013Z,20.7466
2023-06-07T11:35:59.786Z,20.7532
2023-06-07T11:37:01.625Z,20.7704
2023-06-07T11:38:03.469Z,20.7873
2023-06-07T11:39:05.311Z,20.7834
2023-06-07T11:40:07.410Z,20.8107
2023-06-07T11:41:08.996Z,20.8049
2023-06-07T11:42:10.849Z,20.8421
2023-06-07T11:43:12.671Z,20.8298
2023-06-07T11:44:14.504Z,20.8037
2023-06-07T11:45:16.350Z,20.8092
2023-06-07T11:46:18.180Z,20.8092
2023-06-07T11:47:20.062Z,20.8166
2023-06-07T11:48:21.945Z,20.8378
2023-06-07T11:49:23.701Z,20.8618
2023-06-07T11:50:25.521Z,20.8752
2023-06-07T11:51:27.590Z,20.8520
2023-06-07T11:52:29.196Z,20.8392
2023-06-07T11:53:31.041Z,20.8672
2023-06-07T11:54:32.889Z,20.9050
2023-06-07T11:55:34.720Z,20.9239
2023-06-07T11:56:36.592Z,20.9333
2023-06-07T11:57:38.427Z,20.9187
2023-06-07T11:58:40.248Z,20.8998
2023-06-07T11:59:42.204Z,20.8846
2023-06-07T12:00:43.949Z,20.8666
2023-06-07T12:01:45.777Z,20.8731
2023-06-07T12:02:47.628Z,20.8549
2023-06-07T12:03:49.534Z,20.8666
2023-06-07T12:04:51.318Z,20.8542
2023-06-07T12:05:53.093Z,20.8236
2023-06-07T12:06:54.946Z,20.8499
2023-06-07T12:07:57.686Z,20.8949
2023-06-07T12:08:58.624Z,20.9276
2023-06-07T12:10:00.453Z,20.9284
2023-06-07T12:11:02.307Z,20.9467
2023-06-07T12:12:04.235Z,20.9563
2023-06-07T12:13:05.975Z,20.9654
2023-06-07T12:14:07.803Z,20.9345
2023-06-07T12:15:09.637Z,20.9117
2023-06-07T12:16:11.515Z,20.8889
2023-06-07T12:17:13.358Z,20.8571
2023-06-07T12:18:15.169Z,20.8590
2023-06-07T12:19:16.994Z,20.8659
2023-06-07T12:20:18.830Z,20.8795
2023-06-07T12:21:20.691Z,20.8990
2023-06-07T12:22:22.594Z,20.9027
2023-06-07T12:23:24.419Z,20.9302
2023-06-07T12:24:26.189Z,20.9623
2023-06-07T12:25:28.058Z,20.9426
2023-06-07T12:26:32.207Z,20.9272
2023-06-07T12:27:31.726Z,20.9331
2023-06-07T12:28:33.553Z,20.9339